sensor_id;sensor_type;location;lat;lon;timestamp;temperature;humidity
82670;DHT22;72377;48.542;-3.202;2023-08-20T17:42:42;21.70;69.60
82670;DHT22;72377;48.542;-3.202;2023-08-20T17:45:08;21.70;69.50
82670;DHT22;72377;48.542;-3.202;2023-08-20T17:47:36;21.80;69.40
82670;DHT22;72377;48.542;-3.202;2023-08-20T17:50:03;21.80;69.70
82670;DHT22;72377;48.542;-3.202;2023-08-20T17:52:29;21.70;69.80
82670;DHT22;72377;48.542;-3.202;2023-08-20T17:54:55;21.70;69.40
82670;DHT22;72377;48.542;-3.202;2023-08-20T17:57:20;21.70;69.70
82670;DHT22;72377;48.542;-3.202;2023-08-20T17:59:46;21.70;69.80
82670;DHT22;72377;48.542;-3.202;2023-08-20T18:02:12;21.80;69.70
82670;DHT22;72377;48.542;-3.202;2023-08-20T18:04:37;21.80;69.80
82670;DHT22;72377;48.542;-3.202;2023-08-20T18:07:03;21.80;69.80
82670;DHT22;72377;48.542;-3.202;2023-08-20T18:09:32;21.80;69.60
82670;DHT22;72377;48.542;-3.202;2023-08-20T18:11:58;21.70;69.70
82670;DHT22;72377;48.542;-3.202;2023-08-20T18:14:24;21.60;70.10
82670;DHT22;72377;48.542;-3.202;2023-08-20T18:16:50;21.60;70.10
82670;DHT22;72377;48.542;-3.202;2023-08-20T18:19:15;21.50;70.10
82670;DHT22;72377;48.542;-3.202;2023-08-20T18:21:41;21.40;69.50
82670;DHT22;72377;48.542;-3.202;2023-08-20T18:24:07;21.40;69.90
82670;DHT22;72377;48.542;-3.202;2023-08-20T18:26:33;21.40;69.70
82670;DHT22;72377;48.542;-3.202;2023-08-20T18:28:58;21.40;69.80
82670;DHT22;72377;48.542;-3.202;2023-08-20T18:31:24;21.40;69.90
82670;DHT22;72377;48.542;-3.202;2023-08-20T18:33:50;21.40;69.50
82670;DHT22;72377;48.542;-3.202;2023-08-20T18:36:15;21.40;69.60
82670;DHT22;72377;48.542;-3.202;2023-08-20T18:38:41;21.40;69.40
82670;DHT22;72377;48.542;-3.202;2023-08-20T18:41:09;21.40;69.10
82670;DHT22;72377;48.542;-3.202;2023-08-20T18:43:43;21.30;69.80
82670;DHT22;72377;48.542;-3.202;2023-08-20T18:46:09;21.30;70.50
82670;DHT22;72377;48.542;-3.202;2023-08-20T18:48:35;21.30;70.10
82670;DHT22;72377;48.542;-3.202;2023-08-20T18:51:03;21.30;70.30
82670;DHT22;72377;48.542;-3.202;2023-08-20T18:53:30;21.30;70.20
82670;DHT22;72377;48.542;-3.202;2023-08-20T18:55:56;21.30;70.00
82670;DHT22;72377;48.542;-3.202;2023-08-20T18:58:22;21.30;70.00
82670;DHT22;72377;48.542;-3.202;2023-08-20T19:00:48;21.30;69.80
82670;DHT22;72377;48.542;-3.202;2023-08-20T19:03:14;21.30;69.80
82670;DHT22;72377;48.542;-3.202;2023-08-20T19:05:46;21.30;69.90
82670;DHT22;72377;48.542;-3.202;2023-08-20T19:08:12;21.30;70.20
82670;DHT22;72377;48.542;-3.202;2023-08-20T19:10:42;21.30;70.10
82670;DHT22;72377;48.542;-3.202;2023-08-20T19:13:08;21.30;70.10
82670;DHT22;72377;48.542;-3.202;2023-08-20T19:15:43;21.30;69.90
82670;DHT22;72377;48.542;-3.202;2023-08-20T19:18:09;21.20;70.00
82670;DHT22;72377;48.542;-3.202;2023-08-20T19:20:35;21.20;70.20
82670;DHT22;72377;48.542;-3.202;2023-08-20T19:23:01;21.20;70.20
82670;DHT22;72377;48.542;-3.202;2023-08-20T19:25:27;21.20;70.50
82670;DHT22;72377;48.542;-3.202;2023-08-20T19:27:52;21.20;70.00
82670;DHT22;72377;48.542;-3.202;2023-08-20T19:30:18;21.20;70.10
82670;DHT22;72377;48.542;-3.202;2023-08-20T19:32:44;21.20;70.00
82670;DHT22;72377;48.542;-3.202;2023-08-20T19:35:10;21.20;69.90
82670;DHT22;72377;48.542;-3.202;2023-08-20T19:37:35;21.10;69.30
82670;DHT22;72377;48.542;-3.202;2023-08-20T19:40:01;21.10;69.60
82670;DHT22;72377;48.542;-3.202;2023-08-20T19:42:34;21.00;69.50
82670;DHT22;72377;48.542;-3.202;2023-08-20T19:44:59;20.90;70.10
82670;DHT22;72377;48.542;-3.202;2023-08-20T19:47:25;21.00;70.40
82670;DHT22;72377;48.542;-3.202;2023-08-20T19:49:50;21.10;70.20
82670;DHT22;72377;48.542;-3.202;2023-08-20T19:52:16;21.10;70.20
82670;DHT22;72377;48.542;-3.202;2023-08-20T19:54:44;21.00;70.30
82670;DHT22;72377;48.542;-3.202;2023-08-20T19:57:10;21.00;70.40
82670;DHT22;72377;48.542;-3.202;2023-08-20T19:59:36;21.00;70.40
82670;DHT22;72377;48.542;-3.202;2023-08-20T20:02:02;21.00;70.60
82670;DHT22;72377;48.542;-3.202;2023-08-20T20:04:28;21.00;70.60
82670;DHT22;72377;48.542;-3.202;2023-08-20T20:06:54;21.00;70.50
82670;DHT22;72377;48.542;-3.202;2023-08-20T20:09:21;21.00;70.50
82670;DHT22;72377;48.542;-3.202;2023-08-20T20:11:47;21.00;70.40
82670;DHT22;72377;48.542;-3.202;2023-08-20T20:14:13;21.10;70.50
82670;DHT22;72377;48.542;-3.202;2023-08-20T20:16:38;21.00;70.60
82670;DHT22;72377;48.542;-3.202;2023-08-20T20:19:04;21.00;70.80
82670;DHT22;72377;48.542;-3.202;2023-08-20T20:21:30;21.10;70.50
82670;DHT22;72377;48.542;-3.202;2023-08-20T20:23:56;21.10;70.60
82670;DHT22;72377;48.542;-3.202;2023-08-20T20:26:21;21.10;70.70
82670;DHT22;72377;48.542;-3.202;2023-08-20T20:28:47;21.10;70.50
82670;DHT22;72377;48.542;-3.202;2023-08-20T20:31:12;21.10;70.60
82670;DHT22;72377;48.542;-3.202;2023-08-20T20:33:38;21.10;70.60
82670;DHT22;72377;48.542;-3.202;2023-08-20T20:36:04;21.10;70.60
82670;DHT22;72377;48.542;-3.202;2023-08-20T20:38:30;21.10;70.60
82670;DHT22;72377;48.542;-3.202;2023-08-20T20:40:56;21.10;70.60
82670;DHT22;72377;48.542;-3.202;2023-08-20T20:43:21;21.10;70.60
82670;DHT22;72377;48.542;-3.202;2023-08-20T20:45:52;21.20;70.50
82670;DHT22;72377;48.542;-3.202;2023-08-20T20:48:18;21.20;70.50
82670;DHT22;72377;48.542;-3.202;2023-08-20T20:50:44;21.20;70.60
82670;DHT22;72377;48.542;-3.202;2023-08-20T20:53:10;21.20;70.40
82670;DHT22;72377;48.542;-3.202;2023-08-20T20:55:36;21.20;70.40
82670;DHT22;72377;48.542;-3.202;2023-08-20T20:58:02;21.20;70.40
82670;DHT22;72377;48.542;-3.202;2023-08-20T21:00:29;21.20;70.30
82670;DHT22;72377;48.542;-3.202;2023-08-20T21:02:55;21.20;70.40
82670;DHT22;72377;48.542;-3.202;2023-08-20T21:05:20;21.20;70.40
82670;DHT22;72377;48.542;-3.202;2023-08-20T21:07:47;21.30;70.40
82670;DHT22;72377;48.542;-3.202;2023-08-20T21:10:12;21.30;70.30
82670;DHT22;72377;48.542;-3.202;2023-08-20T21:12:38;21.30;70.30
82670;DHT22;72377;48.542;-3.202;2023-08-20T21:15:04;21.30;70.30
82670;DHT22;72377;48.542;-3.202;2023-08-20T21:17:30;21.30;70.40
82670;DHT22;72377;48.542;-3.202;2023-08-20T21:19:55;21.30;70.20
82670;DHT22;72377;48.542;-3.202;2023-08-20T21:22:21;21.30;70.40
82670;DHT22;72377;48.542;-3.202;2023-08-20T21:24:47;21.30;70.40
82670;DHT22;72377;48.542;-3.202;2023-08-20T21:27:13;21.30;70.20
82670;DHT22;72377;48.542;-3.202;2023-08-20T21:29:39;21.30;70.40
82670;DHT22;72377;48.542;-3.202;2023-08-20T21:32:05;21.30;70.40
82670;DHT22;72377;48.542;-3.202;2023-08-20T21:34:32;21.30;70.30
82670;DHT22;72377;48.542;-3.202;2023-08-20T21:37:01;21.30;70.30
82670;DHT22;72377;48.542;-3.202;2023-08-20T21:39:27;21.30;70.30
82670;DHT22;72377;48.542;-3.202;2023-08-20T21:41:53;21.30;70.20
82670;DHT22;72377;48.542;-3.202;2023-08-20T21:44:18;21.30;70.20
82670;DHT22;72377;48.542;-3.202;2023-08-20T21:46:44;21.30;70.30
82670;DHT22;72377;48.542;-3.202;2023-08-20T21:49:10;21.30;70.40
82670;DHT22;72377;48.542;-3.202;2023-08-20T21:51:36;21.30;70.30
82670;DHT22;72377;48.542;-3.202;2023-08-20T21:54:02;21.30;70.30
82670;DHT22;72377;48.542;-3.202;2023-08-20T21:56:28;21.30;70.30
82670;DHT22;72377;48.542;-3.202;2023-08-20T21:58:54;21.30;70.30
82670;DHT22;72377;48.542;-3.202;2023-08-20T22:01:20;21.30;70.30
82670;DHT22;72377;48.542;-3.202;2023-08-20T22:03:46;21.30;70.20
82670;DHT22;72377;48.542;-3.202;2023-08-20T22:06:11;21.30;70.20
82670;DHT22;72377;48.542;-3.202;2023-08-20T22:08:37;21.30;70.20
82670;DHT22;72377;48.542;-3.202;2023-08-20T22:11:03;21.30;70.20
82670;DHT22;72377;48.542;-3.202;2023-08-20T22:13:29;21.40;70.20
82670;DHT22;72377;48.542;-3.202;2023-08-20T22:15:56;21.30;70.20
82670;DHT22;72377;48.542;-3.202;2023-08-20T22:18:22;21.40;70.30
82670;DHT22;72377;48.542;-3.202;2023-08-20T22:20:50;21.40;70.20
82670;DHT22;72377;48.542;-3.202;2023-08-20T22:23:16;21.30;70.10
82670;DHT22;72377;48.542;-3.202;2023-08-20T22:25:41;21.30;70.30
82670;DHT22;72377;48.542;-3.202;2023-08-20T22:28:07;21.30;70.10
82670;DHT22;72377;48.542;-3.202;2023-08-20T22:30:33;21.30;70.10
82670;DHT22;72377;48.542;-3.202;2023-08-20T22:33:01;21.30;70.40
82670;DHT22;72377;48.542;-3.202;2023-08-20T22:35:26;21.30;70.20
82670;DHT22;72377;48.542;-3.202;2023-08-20T22:40:31;21.30;70.20
82670;DHT22;72377;48.542;-3.202;2023-08-20T22:42:57;21.30;70.10
82670;DHT22;72377;48.542;-3.202;2023-08-20T22:45:23;21.30;70.30
82670;DHT22;72377;48.542;-3.202;2023-08-20T22:47:49;21.20;70.10
82670;DHT22;72377;48.542;-3.202;2023-08-20T22:50:14;21.20;70.20
82670;DHT22;72377;48.542;-3.202;2023-08-20T22:52:40;21.20;70.20
82670;DHT22;72377;48.542;-3.202;2023-08-20T22:55:08;21.20;70.40
82670;DHT22;72377;48.542;-3.202;2023-08-20T22:57:35;21.20;70.60
82670;DHT22;72377;48.542;-3.202;2023-08-20T23:00:02;21.10;70.60
82670;DHT22;72377;48.542;-3.202;2023-08-20T23:02:30;21.10;70.50
82670;DHT22;72377;48.542;-3.202;2023-08-20T23:04:55;21.10;70.60
82670;DHT22;72377;48.542;-3.202;2023-08-20T23:07:21;21.10;70.70
